createdAt,value
2023-04-07T00:01:56.800Z,9.95
2023-04-07T00:04:23.904Z,10.85
2023-04-07T00:06:51.113Z,11.63
2023-04-07T00:09:18.041Z,11.30
2023-04-07T00:11:44.989Z,11.77
2023-04-07T00:14:11.943Z,12.38
2023-04-07T00:16:39.071Z,12.88
2023-04-07T00:19:06.065Z,12.75
2023-04-07T00:21:35.760Z,12.68
2023-04-07T00:24:02.684Z,14.15
2023-04-07T00:26:31.712Z,14.27
2023-04-07T00:28:59.416Z,14.50
2023-04-07T00:31:26.976Z,15.52
2023-04-07T00:33:54.356Z,15.43
2023-04-07T00:36:21.798Z,18.08
2023-04-07T00:38:48.696Z,18.33
2023-04-07T00:41:16.768Z,19.83
2023-04-07T00:43:44.039Z,19.90
2023-04-07T00:46:11.187Z,21.70
2023-04-07T00:48:38.690Z,18.88
2023-04-07T00:51:07.437Z,17.80
2023-04-07T00:53:34.584Z,19.52
2023-04-07T00:56:01.748Z,16.15
2023-04-07T00:58:28.739Z,14.88
2023-04-07T01:01:13.695Z,13.50
2023-04-07T01:03:52.743Z,15.32
2023-04-07T01:06:25.076Z,14.77
2023-04-07T01:09:07.858Z,13.93
2023-04-07T01:11:42.000Z,11.65
2023-04-07T01:14:12.304Z,12.70
2023-04-07T01:16:52.498Z,12.40
2023-04-07T01:19:37.818Z,12.68
2023-04-07T01:22:13.997Z,11.85
2023-04-07T01:25:24.505Z,11.90
2023-04-07T01:27:59.596Z,11.95
2023-04-07T01:30:31.054Z,11.75
2023-04-07T01:33:02.008Z,11.23
2023-04-07T01:35:33.280Z,11.85
2023-04-07T01:38:01.548Z,12.20
2023-04-07T01:40:30.027Z,12.10
2023-04-07T01:42:58.093Z,11.32
2023-04-07T01:45:28.185Z,11.55
2023-04-07T01:47:56.148Z,11.18
2023-04-07T01:50:25.173Z,10.50
2023-04-07T01:52:53.412Z,10.60
2023-04-07T01:55:21.337Z,10.70
2023-04-07T01:58:06.433Z,10.85
2023-04-07T02:00:36.186Z,11.30
2023-04-07T02:03:21.279Z,10.93
2023-04-07T02:05:57.263Z,11.40
2023-04-07T02:08:30.557Z,12.02
2023-04-07T02:10:59.951Z,11.68
2023-04-07T02:16:02.768Z,11.35
2023-04-07T02:18:32.567Z,11.70
2023-04-07T02:21:02.405Z,11.33
2023-04-07T02:23:29.446Z,13.05
2023-04-07T02:26:00.199Z,12.63
2023-04-07T02:28:27.219Z,11.48
2023-04-07T02:30:54.193Z,12.95
2023-04-07T02:33:21.291Z,12.60
2023-04-07T02:35:48.206Z,12.40
2023-04-07T02:38:15.236Z,13.57
2023-04-07T02:40:42.266Z,14.38
2023-04-07T02:43:09.232Z,13.38
2023-04-07T02:45:36.379Z,14.57
2023-04-07T02:48:04.162Z,13.02
2023-04-07T02:50:32.445Z,14.32
2023-04-07T02:52:59.478Z,15.38
2023-04-07T02:55:26.504Z,15.60
2023-04-07T02:57:53.589Z,15.73
2023-04-07T03:00:49.641Z,17.00
2023-04-07T03:03:22.227Z,15.73
2023-04-07T03:06:24.786Z,16.52
2023-04-07T03:09:08.021Z,17.42
2023-04-07T03:11:34.979Z,18.25
2023-04-07T03:14:02.027Z,18.23
2023-04-07T03:16:30.972Z,17.52
2023-04-07T03:19:03.396Z,18.52
2023-04-07T03:21:34.535Z,19.38
2023-04-07T03:24:01.646Z,18.52
2023-04-07T03:26:28.798Z,20.65
2023-04-07T03:28:56.799Z,21.02
2023-04-07T03:31:23.844Z,20.85
2023-04-07T03:33:53.296Z,22.70
2023-04-07T03:36:24.723Z,21.17
2023-04-07T03:38:51.861Z,22.42
2023-04-07T03:41:19.172Z,24.15
2023-04-07T03:43:47.620Z,25.42
2023-04-07T03:46:15.689Z,24.38
2023-04-07T03:48:46.442Z,23.38
2023-04-07T03:51:13.650Z,25.20
2023-04-07T03:53:42.138Z,24.50
2023-04-07T03:56:27.979Z,23.90
2023-04-07T03:58:57.805Z,23.92
2023-04-07T04:01:29.296Z,22.95
2023-04-07T04:04:00.069Z,23.35
2023-04-07T04:06:29.852Z,25.02
2023-04-07T04:09:05.910Z,23.45
2023-04-07T04:11:36.623Z,25.48
2023-04-07T04:14:05.477Z,25.50
2023-04-07T04:16:35.793Z,24.65
2023-04-07T04:19:08.289Z,25.55
2023-04-07T04:21:35.461Z,26.63
2023-04-07T04:24:03.496Z,26.00
2023-04-07T04:26:31.471Z,27.35
2023-04-07T04:29:08.624Z,26.65
2023-04-07T04:31:36.176Z,27.23
2023-04-07T04:34:05.393Z,25.60
2023-04-07T04:36:33.489Z,27.08
2023-04-07T04:39:04.802Z,26.77
2023-04-07T04:41:33.489Z,26.52
2023-04-07T04:44:01.697Z,25.05
2023-04-07T04:46:29.190Z,25.80
2023-04-07T04:48:56.838Z,25.65
2023-04-07T04:51:26.162Z,22.85
2023-04-07T04:53:58.309Z,23.40
2023-04-07T04:56:27.165Z,23.38
2023-04-07T04:58:56.015Z,24.35
2023-04-07T05:01:43.279Z,23.77
2023-04-07T05:04:14.879Z,24.33
2023-04-07T05:06:47.890Z,24.70
2023-04-07T05:09:19.942Z,25.95
2023-04-07T05:11:48.884Z,22.63
2023-04-07T05:14:16.553Z,22.95
2023-04-07T05:16:50.031Z,24.20
2023-04-07T05:19:21.316Z,22.00
2023-04-07T05:21:49.901Z,23.75
2023-04-07T05:24:19.868Z,22.65
2023-04-07T05:26:52.282Z,25.58
2023-04-07T05:29:19.520Z,25.67
2023-04-07T05:31:46.870Z,26.38
2023-04-07T05:34:17.188Z,30.13
2023-04-07T05:36:50.029Z,30.08
2023-04-07T05:39:17.210Z,31.13
2023-04-07T05:41:45.860Z,29.35
2023-04-07T05:44:14.769Z,30.95
2023-04-07T05:46:42.537Z,30.42
2023-04-07T05:49:19.564Z,29.05
2023-04-07T05:51:51.118Z,27.85
2023-04-07T05:54:18.076Z,24.40
2023-04-07T05:56:45.504Z,27.45
2023-04-07T05:59:12.690Z,25.15
2023-04-07T06:01:40.156Z,25.98
2023-04-07T06:04:08.154Z,25.63
2023-04-07T06:06:35.757Z,25.85
2023-04-07T06:09:02.916Z,26.83
2023-04-07T06:11:30.005Z,25.45
2023-04-07T06:13:56.948Z,26.88
2023-04-07T06:16:25.665Z,25.05
2023-04-07T06:18:52.726Z,26.65
2023-04-07T06:21:19.654Z,27.75
2023-04-07T06:23:48.727Z,27.52
2023-04-07T06:26:15.961Z,25.15
2023-04-07T06:28:43.021Z,25.42
2023-04-07T06:31:10.000Z,24.13
2023-04-07T06:33:38.363Z,23.15
2023-04-07T06:36:07.265Z,22.70
2023-04-07T06:38:36.290Z,22.05
2023-04-07T06:41:03.677Z,22.13
2023-04-07T06:43:31.568Z,22.77
2023-04-07T06:46:03.094Z,23.05
2023-04-07T06:48:30.807Z,23.88
2023-04-07T06:50:57.996Z,23.63
2023-04-07T06:53:25.424Z,22.40
2023-04-07T06:55:53.144Z,20.45
2023-04-07T06:58:20.160Z,20.98
2023-04-07T07:00:47.223Z,19.60
2023-04-07T07:03:14.498Z,19.55
2023-04-07T07:05:41.740Z,19.17
2023-04-07T07:08:08.760Z,17.63
2023-04-07T07:10:35.657Z,20.90
2023-04-07T07:13:02.607Z,17.63
2023-04-07T07:15:29.579Z,18.92
2023-04-07T07:17:56.735Z,18.25
2023-04-07T07:20:26.074Z,17.45
2023-04-07T07:22:53.089Z,16.80
2023-04-07T07:25:20.109Z,17.73
2023-04-07T07:27:47.072Z,17.83
2023-04-07T07:30:14.191Z,18.23
2023-04-07T07:32:41.287Z,18.42
2023-04-07T07:35:10.523Z,17.23
2023-04-07T07:37:37.511Z,17.60
2023-04-07T07:40:05.304Z,15.52
2023-04-07T07:42:32.287Z,16.08
2023-04-07T07:44:59.756Z,15.23
2023-04-07T07:47:26.870Z,15.85
2023-04-07T07:49:53.973Z,14.63
2023-04-07T07:52:21.368Z,15.40
2023-04-07T07:54:50.243Z,13.45
2023-04-07T07:57:17.547Z,12.70
2023-04-07T07:59:44.474Z,13.02
2023-04-07T08:02:11.567Z,13.52
2023-04-07T08:04:38.724Z,13.02
2023-04-07T08:07:05.781Z,14.80
2023-04-07T08:09:34.443Z,12.95
2023-04-07T08:12:01.472Z,12.95
2023-04-07T08:14:30.194Z,8.27
2023-04-07T08:16:57.112Z,8.52
2023-04-07T08:19:24.829Z,9.27
2023-04-07T08:21:52.115Z,9.45
2023-04-07T08:24:19.188Z,8.10
2023-04-07T08:26:46.204Z,8.95
2023-04-07T08:29:13.376Z,10.20
2023-04-07T08:31:40.877Z,9.45
2023-04-07T08:34:09.394Z,6.55
2023-04-07T08:36:37.461Z,9.02
2023-04-07T08:39:08.294Z,8.30
2023-04-07T08:41:39.654Z,8.02
2023-04-07T08:44:08.354Z,7.65
2023-04-07T08:46:38.432Z,9.07
2023-04-07T08:49:11.375Z,7.22
2023-04-07T08:51:40.571Z,8.10
2023-04-07T08:54:11.799Z,7.05
2023-04-07T08:56:42.697Z,8.05
2023-04-07T08:59:12.414Z,8.95
2023-04-07T09:01:42.679Z,7.55
2023-04-07T09:04:10.553Z,7.45
2023-04-07T09:06:38.382Z,7.18
2023-04-07T09:09:08.886Z,7.78
2023-04-07T09:11:37.662Z,7.40
2023-04-07T09:14:06.549Z,6.35
2023-04-07T09:16:33.589Z,6.25
2023-04-07T09:19:00.815Z,5.70
2023-04-07T09:21:49.018Z,6.03
2023-04-07T09:24:27.835Z,6.95
2023-04-07T09:27:17.201Z,6.43
2023-04-07T09:29:47.165Z,6.40
2023-04-07T09:32:41.550Z,6.60
2023-04-07T09:35:09.387Z,6.40
2023-04-07T09:37:37.905Z,6.20
2023-04-07T09:40:05.521Z,6.35
2023-04-07T09:42:35.499Z,6.35
2023-04-07T09:45:04.165Z,5.47
2023-04-07T09:47:32.898Z,5.63
2023-04-07T09:50:06.712Z,4.55
2023-04-07T09:52:54.754Z,4.40
2023-04-07T09:55:22.915Z,4.30
2023-04-07T09:57:51.381Z,5.00
2023-04-07T10:00:18.387Z,4.90
2023-04-07T10:02:47.097Z,4.25
2023-04-07T10:05:14.123Z,4.47
2023-04-07T10:07:42.666Z,3.90
2023-04-07T10:10:10.522Z,4.90
2023-04-07T10:12:38.466Z,4.53
2023-04-07T10:15:08.207Z,3.92
2023-04-07T10:17:37.451Z,2.90
2023-04-07T10:20:07.057Z,5.00
2023-04-07T10:22:35.604Z,4.22
2023-04-07T10:25:24.628Z,3.58
2023-04-07T10:27:53.669Z,3.45
2023-04-07T10:30:32.515Z,4.05
2023-04-07T10:32:59.800Z,3.67
2023-04-07T10:35:28.295Z,3.90
2023-04-07T10:38:08.169Z,3.60
2023-04-07T10:40:38.931Z,3.50
2023-04-07T10:43:11.434Z,3.13
2023-04-07T10:45:52.600Z,2.42
2023-04-07T10:48:20.211Z,2.70
2023-04-07T10:51:07.434Z,3.17
2023-04-07T10:53:37.092Z,1.90
2023-04-07T10:56:04.875Z,1.63
2023-04-07T10:58:37.476Z,1.75
2023-04-07T11:01:04.928Z,1.83
2023-04-07T11:03:34.991Z,1.85
2023-04-07T11:06:10.912Z,2.00
2023-04-07T11:08:49.489Z,1.70
2023-04-07T11:11:22.768Z,3.80
2023-04-07T11:13:51.660Z,4.50
2023-04-07T11:16:20.333Z,5.00
2023-04-07T11:18:48.888Z,3.90
2023-04-07T11:21:19.832Z,3.22
2023-04-07T11:23:48.615Z,2.78
2023-04-07T11:26:16.495Z,3.00
2023-04-07T11:29:06.683Z,2.60
2023-04-07T11:31:34.071Z,2.45
2023-04-07T11:34:05.817Z,2.30
2023-04-07T11:36:35.063Z,2.10
2023-04-07T11:39:04.283Z,1.60
2023-04-07T11:41:33.004Z,1.70
2023-04-07T11:44:11.740Z,1.80
2023-04-07T11:46:55.239Z,1.60
2023-04-07T11:49:26.133Z,1.80
2023-04-07T11:52:01.171Z,1.65
2023-04-07T11:54:28.485Z,1.70
2023-04-07T11:56:56.257Z,3.00
2023-04-07T11:59:25.237Z,3.67
2023-04-07T12:01:55.342Z,3.33
2023-04-07T12:04:24.325Z,3.08
2023-04-07T12:06:51.744Z,3.03
2023-04-07T12:09:38.291Z,3.17
2023-04-07T12:12:07.617Z,3.30
2023-04-07T12:14:36.141Z,2.55
2023-04-07T12:17:04.579Z,2.28
2023-04-07T12:19:36.898Z,2.42
2023-04-07T12:24:32.381Z,2.05
2023-04-07T12:26:59.934Z,2.55
2023-04-07T12:29:27.089Z,1.88
2023-04-07T12:31:57.806Z,2.22
2023-04-07T12:34:24.825Z,2.13
2023-04-07T12:36:52.490Z,2.80
2023-04-07T12:39:19.442Z,2.72
2023-04-07T12:41:47.753Z,2.50
2023-04-07T12:44:16.342Z,2.72
2023-04-07T12:46:43.367Z,3.63
2023-04-07T12:49:10.586Z,3.72
2023-04-07T12:51:40.982Z,4.25
2023-04-07T12:54:08.025Z,5.72
2023-04-07T12:56:35.013Z,5.22
2023-04-07T12:59:02.261Z,5.38
2023-04-07T13:01:29.751Z,5.13
2023-04-07T13:03:57.395Z,5.20
2023-04-07T13:06:24.590Z,4.63
2023-04-07T13:08:51.874Z,4.07
2023-04-07T13:11:19.052Z,3.60
2023-04-07T13:13:46.254Z,3.47
2023-04-07T13:16:13.568Z,3.10
2023-04-07T13:18:41.273Z,2.95
2023-04-07T13:23:43.372Z,3.67
2023-04-07T13:26:11.387Z,3.92
2023-04-07T13:28:39.374Z,3.15
2023-04-07T13:31:07.674Z,3.50
2023-04-07T13:33:35.141Z,2.30
2023-04-07T13:36:02.111Z,2.53
2023-04-07T13:38:29.158Z,2.10
2023-04-07T13:40:58.021Z,2.85
2023-04-07T13:43:25.007Z,2.20
2023-04-07T13:45:51.941Z,2.78
2023-04-07T13:48:19.134Z,2.58
2023-04-07T13:50:48.018Z,2.85
2023-04-07T13:53:17.826Z,2.60
2023-04-07T13:55:46.181Z,2.75
2023-04-07T13:58:13.709Z,2.35
2023-04-07T14:00:40.760Z,2.85
2023-04-07T14:03:08.482Z,2.58
2023-04-07T14:05:36.046Z,2.40
2023-04-07T14:08:03.099Z,1.75
2023-04-07T14:10:29.969Z,1.50
2023-04-07T14:12:58.997Z,2.10
2023-04-07T14:15:26.556Z,1.42
2023-04-07T14:17:54.287Z,1.60
2023-04-07T14:20:21.282Z,1.67
2023-04-07T14:22:48.317Z,1.40
2023-04-07T14:25:16.644Z,1.48
2023-04-07T14:27:43.896Z,1.85
2023-04-07T14:30:14.208Z,1.20
2023-04-07T14:32:42.671Z,1.05
2023-04-07T14:35:10.901Z,1.05
2023-04-07T14:37:38.556Z,1.67
2023-04-07T14:40:07.568Z,1.00
2023-04-07T14:42:35.837Z,1.15
2023-04-07T14:45:02.973Z,0.80
2023-04-07T14:47:30.109Z,1.20
2023-04-07T14:49:57.148Z,0.88
2023-04-07T14:52:24.559Z,1.35
2023-04-07T14:54:51.680Z,1.10
2023-04-07T14:57:18.955Z,1.15
2023-04-07T14:59:46.293Z,1.27
2023-04-07T15:02:13.310Z,1.10
2023-04-07T15:04:40.590Z,1.10
2023-04-07T15:07:07.751Z,1.13
2023-04-07T15:09:34.690Z,1.02
2023-04-07T15:12:02.247Z,1.00
2023-04-07T15:14:29.667Z,1.00
2023-04-07T15:16:56.613Z,0.93
2023-04-07T15:19:23.666Z,0.73
2023-04-07T15:21:50.764Z,1.33
2023-04-07T15:24:19.586Z,0.82
2023-04-07T15:26:51.055Z,1.23
2023-04-07T15:29:18.407Z,1.00
2023-04-07T15:31:45.618Z,1.13
2023-04-07T15:34:13.029Z,1.17
2023-04-07T15:36:40.453Z,1.20
2023-04-07T15:39:07.500Z,1.08
2023-04-07T15:41:34.484Z,1.25
2023-04-07T15:44:01.854Z,1.40
2023-04-07T15:46:29.209Z,1.40
2023-04-07T15:48:56.285Z,1.75
2023-04-07T15:51:25.776Z,1.30
2023-04-07T15:53:52.860Z,1.55
2023-04-07T15:56:21.545Z,1.30
2023-04-07T15:58:48.430Z,2.08
2023-04-07T16:01:15.901Z,1.40
2023-04-07T16:03:42.982Z,1.27
2023-04-07T16:06:11.263Z,1.70
2023-04-07T16:08:38.202Z,1.50
2023-04-07T16:11:05.226Z,1.83
2023-04-07T16:13:32.162Z,1.40
2023-04-07T16:16:00.387Z,1.30
2023-04-07T16:18:28.437Z,1.85
2023-04-07T16:20:55.972Z,1.48
2023-04-07T16:23:24.473Z,0.95
2023-04-07T16:25:51.764Z,1.48
2023-04-07T16:28:18.774Z,1.40
2023-04-07T16:30:45.938Z,1.23
2023-04-07T16:33:13.493Z,0.95
2023-04-07T16:35:40.660Z,1.00
2023-04-07T16:38:08.750Z,1.10
2023-04-07T16:40:35.723Z,1.40
2023-04-07T16:43:03.179Z,0.98
2023-04-07T16:45:30.922Z,1.00
2023-04-07T16:47:57.949Z,1.10
2023-04-07T16:50:24.900Z,1.42
2023-04-07T16:52:57.415Z,1.23
2023-04-07T16:55:24.633Z,0.98
2023-04-07T16:57:51.512Z,1.58
2023-04-07T17:00:20.225Z,1.10
2023-04-07T17:02:47.323Z,1.02
2023-04-07T17:05:14.374Z,1.20
2023-04-07T17:07:41.281Z,1.33
2023-04-07T17:10:08.808Z,0.98
2023-04-07T17:12:35.767Z,1.23
2023-04-07T17:15:02.774Z,1.17
2023-04-07T17:17:31.268Z,1.70
2023-04-07T17:19:59.815Z,1.20
2023-04-07T17:22:26.734Z,1.02
2023-04-07T17:24:54.007Z,1.50
2023-04-07T17:27:21.271Z,1.05
2023-04-07T17:29:48.273Z,1.25
2023-04-07T17:32:15.556Z,1.67
2023-04-07T17:34:42.515Z,1.42
2023-04-07T17:37:09.540Z,1.20
2023-04-07T17:39:36.454Z,1.35
2023-04-07T17:42:03.514Z,1.27
2023-04-07T17:44:31.349Z,1.10
2023-04-07T17:46:59.081Z,1.63
2023-04-07T17:49:27.773Z,1.48
2023-04-07T17:51:55.608Z,1.23
2023-04-07T17:54:23.011Z,1.77
2023-04-07T17:56:50.049Z,1.55
2023-04-07T17:59:19.637Z,1.48
2023-04-07T18:01:46.712Z,1.10
2023-04-07T18:04:15.001Z,1.50
2023-04-07T18:06:42.083Z,1.75
2023-04-07T18:09:10.263Z,1.50
2023-04-07T18:11:37.583Z,1.77
2023-04-07T18:14:04.702Z,1.60
2023-04-07T18:16:32.766Z,1.75
2023-04-07T18:19:01.169Z,2.00
2023-04-07T18:21:29.710Z,1.70
2023-04-07T18:23:56.964Z,1.70
2023-04-07T18:26:23.917Z,1.73
2023-04-07T18:28:50.913Z,1.63
2023-04-07T18:31:18.902Z,1.50
2023-04-07T18:36:37.908Z,1.77
2023-04-07T18:39:07.475Z,1.70
2023-04-07T18:41:34.447Z,1.90
2023-04-07T18:44:01.496Z,1.88
2023-04-07T18:46:28.547Z,2.20
2023-04-07T18:48:55.699Z,1.95
2023-04-07T18:51:22.730Z,1.98
2023-04-07T18:53:52.016Z,1.88
2023-04-07T18:56:21.104Z,1.60
2023-04-07T18:58:49.242Z,2.38
2023-04-07T19:01:17.109Z,1.95
2023-04-07T19:03:44.256Z,2.10
2023-04-07T19:06:15.821Z,2.35
2023-04-07T19:08:43.211Z,1.58
2023-04-07T19:11:12.027Z,2.55
2023-04-07T19:13:39.269Z,2.42
2023-04-07T19:16:07.715Z,1.95
2023-04-07T19:18:34.940Z,2.10
2023-04-07T19:21:02.231Z,2.30
2023-04-07T19:23:30.586Z,1.63
2023-04-07T19:26:00.974Z,2.25
2023-04-07T19:28:28.104Z,2.03
2023-04-07T19:30:57.861Z,2.72
2023-04-07T19:33:24.751Z,2.08
2023-04-07T19:35:53.392Z,2.60
2023-04-07T19:38:20.580Z,2.28
2023-04-07T19:40:47.588Z,2.50
2023-04-07T19:43:16.499Z,2.30
2023-04-07T19:45:47.043Z,2.25
2023-04-07T19:48:14.020Z,2.88
2023-04-07T19:50:43.797Z,2.72
2023-04-07T19:53:15.960Z,2.50
2023-04-07T19:58:10.430Z,2.90
2023-04-07T20:00:41.023Z,3.00
2023-04-07T20:03:08.155Z,2.88
2023-04-07T20:05:37.238Z,3.63
2023-04-07T20:08:04.271Z,3.35
2023-04-07T20:10:31.330Z,2.90
2023-04-07T20:12:58.408Z,3.05
2023-04-07T20:15:25.515Z,3.30
2023-04-07T20:17:52.579Z,3.25
2023-04-07T20:20:19.934Z,3.17
2023-04-07T20:22:47.164Z,3.45
2023-04-07T20:25:17.875Z,3.15
2023-04-07T20:27:50.761Z,3.40
2023-04-07T20:30:18.138Z,2.55
2023-04-07T20:32:47.067Z,2.92
2023-04-07T20:35:14.396Z,3.28
2023-04-07T20:37:43.217Z,2.60
2023-04-07T20:40:10.592Z,3.30
2023-04-07T20:42:38.294Z,2.75
2023-04-07T20:45:07.204Z,2.90
2023-04-07T20:47:36.893Z,2.53
2023-04-07T20:50:05.914Z,3.53
2023-04-07T20:52:32.805Z,2.72
2023-04-07T20:54:59.850Z,2.50
2023-04-07T20:57:28.421Z,2.72
2023-04-07T20:59:55.518Z,3.30
2023-04-07T21:02:22.625Z,3.35
2023-04-07T21:04:50.236Z,2.63
2023-04-07T21:07:17.177Z,3.28
2023-04-07T21:09:45.914Z,2.63
2023-04-07T21:12:14.206Z,3.13
2023-04-07T21:14:41.530Z,3.25
2023-04-07T21:17:08.525Z,2.65
2023-04-07T21:19:35.605Z,3.30
2023-04-07T21:22:02.880Z,3.58
2023-04-07T21:24:30.190Z,3.80
2023-04-07T21:26:57.157Z,4.18
2023-04-07T21:29:26.877Z,4.63
2023-04-07T21:31:54.188Z,4.05
2023-04-07T21:34:21.122Z,4.75
2023-04-07T21:36:48.081Z,4.32
2023-04-07T21:39:15.140Z,4.68
2023-04-07T21:41:42.319Z,4.13
2023-04-07T21:44:11.458Z,5.18
2023-04-07T21:46:38.530Z,5.35
2023-04-07T21:49:05.605Z,6.93
2023-04-07T21:51:34.058Z,4.95
2023-04-07T21:54:01.637Z,5.25
2023-04-07T21:56:29.181Z,4.90
2023-04-07T21:58:56.318Z,4.63
2023-04-07T22:01:23.263Z,5.10
2023-04-07T22:03:52.815Z,5.70
2023-04-07T22:06:20.114Z,5.60
2023-04-07T22:09:00.606Z,5.72
2023-04-07T22:11:56.329Z,5.88
2023-04-07T22:14:25.085Z,5.20
2023-04-07T22:16:52.559Z,5.47
2023-04-07T22:19:19.628Z,6.20
2023-04-07T22:21:47.597Z,7.60
2023-04-07T22:24:14.566Z,5.30
2023-04-07T22:26:41.826Z,6.35
2023-04-07T22:29:09.677Z,6.85
2023-04-07T22:31:38.660Z,7.28
2023-04-07T22:34:05.898Z,7.15
2023-04-07T22:36:34.408Z,7.28
2023-04-07T22:39:01.392Z,6.93
2023-04-07T22:41:28.430Z,6.82
2023-04-07T22:43:55.548Z,7.80
2023-04-07T22:46:22.483Z,7.05
2023-04-07T22:48:49.721Z,6.40
2023-04-07T22:51:16.994Z,7.25
2023-04-07T22:53:44.007Z,6.82
2023-04-07T22:56:11.362Z,7.13
2023-04-07T22:58:38.427Z,6.30
2023-04-07T23:01:05.616Z,6.07
2023-04-07T23:03:32.814Z,5.93
2023-04-07T23:06:01.324Z,6.60
2023-04-07T23:08:28.325Z,7.05
2023-04-07T23:10:56.437Z,6.07
2023-04-07T23:13:23.348Z,6.07
2023-04-07T23:15:50.393Z,6.63
2023-04-07T23:18:17.411Z,7.47
2023-04-07T23:20:54.352Z,7.00
2023-04-07T23:23:23.130Z,7.10
2023-04-07T23:25:50.344Z,7.18
2023-04-07T23:28:17.607Z,6.60
2023-04-07T23:30:44.578Z,6.25
2023-04-07T23:33:12.489Z,5.85
2023-04-07T23:35:39.473Z,7.20
2023-04-07T23:38:08.845Z,7.05
2023-04-07T23:40:35.896Z,7.55
2023-04-07T23:43:02.916Z,7.10
2023-04-07T23:45:32.490Z,7.32
2023-04-07T23:48:00.944Z,7.63
2023-04-07T23:50:29.344Z,7.38
2023-04-07T23:52:56.369Z,6.70
2023-04-07T23:55:23.762Z,6.80
2023-04-07T23:57:52.245Z,6.97
